Time;durP1;ratioP1;P1;durP2;ratioP2;P2;SDS_P1;SDS_P2;PMS_P1;PMS_P2;Temp;Humidity;BMP_temperature;BMP_pressure;BME280_temperature;BME280_humidity;BME280_pressure;Samples;Min_cycle;Max_cycle;Signal;HPM_P1;HPM_P2
2022/03/16 00:02:23;;;;;;;;;21.00;18.25;;;;;13.28;56.40;101572.00;5059277;28;45224;-61
2022/03/16 00:04:54;;;;;;;;;19.25;16.50;;;;;13.29;56.22;101571.97;5057983;28;47452;-61
2022/03/16 00:07:20;;;;;;;;;23.00;19.00;;;;;13.29;56.21;101563.19;5057724;28;45344;-60
2022/03/16 00:09:46;;;;;;;;;23.50;20.50;;;;;13.26;56.28;101558.84;5059007;28;45282;-60
2022/03/16 00:12:13;;;;;;;;;21.50;19.50;;;;;13.29;56.23;101558.78;5059254;28;45216;-60
2022/03/16 00:14:40;;;;;;;;;22.75;21.00;;;;;13.28;56.75;101564.97;5058958;28;46878;-60
2022/03/16 00:17:06;;;;;;;;;22.50;20.75;;;;;13.29;56.66;101568.47;5060100;28;45528;-60
2022/03/16 00:19:31;;;;;;;;;21.75;19.25;;;;;13.29;56.28;101571.97;5061218;28;45447;-61
2022/03/16 00:21:58;;;;;;;;;21.50;19.50;;;;;13.29;56.66;101568.47;5061207;28;45318;-61
2022/03/16 00:24:24;;;;;;;;;19.00;19.00;;;;;13.28;56.54;101570.25;5060753;28;46848;-60
2022/03/16 00:26:50;;;;;;;;;26.50;21.00;;;;;13.29;56.87;101568.47;5062432;28;45603;-60
2022/03/16 00:29:16;;;;;;;;;19.00;17.50;;;;;13.28;56.62;101566.72;5062402;28;45499;-60
2022/03/16 00:31:41;;;;;;;;;25.25;24.50;;;;;13.29;56.43;101557.91;5062629;28;45460;-60
2022/03/16 00:34:06;;;;;;;;;25.25;22.00;;;;;13.29;56.68;101568.47;5062413;28;45231;-60
2022/03/16 00:36:32;;;;;;;;;20.50;18.75;;;;;13.30;56.43;101562.31;5062502;28;45216;-60
2022/03/16 00:38:58;;;;;;;;;22.50;20.00;;;;;13.29;56.20;101550.00;5052846;28;45377;-60
2022/03/16 00:41:24;;;;;;;;;20.00;19.75;;;;;13.28;56.53;101549.13;5061150;28;45528;-60
2022/03/16 00:43:49;;;;;;;;;24.75;20.00;;;;;13.29;56.66;101545.59;5060757;28;46473;-60
2022/03/16 00:46:15;;;;;;;;;23.25;21.75;;;;;13.28;56.72;101545.59;5078009;27;45219;-60
2022/03/16 00:48:40;;;;;;;;;22.50;19.75;;;;;13.29;56.41;101548.22;5060961;28;45295;-60
2022/03/16 00:51:07;;;;;;;;;23.50;21.00;;;;;13.29;56.44;101544.72;5060837;28;45498;-61
2022/03/16 00:53:34;;;;;;;;;20.75;20.50;;;;;13.30;56.68;101541.19;5061835;28;45315;-60
2022/03/16 00:56:03;;;;;;;;;20.75;20.00;;;;;13.27;56.55;101534.19;5060579;28;45396;-60
2022/03/16 00:58:28;;;;;;;;;23.50;20.00;;;;;13.29;56.21;101545.59;5062122;28;45307;-60
2022/03/16 01:00:54;;;;;;;;;19.75;19.00;;;;;13.27;56.54;101538.56;5061927;28;45550;-60
2022/03/16 01:03:20;;;;;;;;;26.75;22.25;;;;;13.28;56.57;101541.22;5062083;28;45417;-60
2022/03/16 01:05:46;;;;;;;;;24.75;20.25;;;;;13.26;56.60;101526.31;5062177;28;45602;-60
2022/03/16 01:08:12;;;;;;;;;15.75;15.75;;;;;13.28;56.54;101525.38;5061421;28;45299;-61
2022/03/16 01:10:38;;;;;;;;;21.75;20.00;;;;;13.29;56.35;101528.88;5060455;28;45366;-60
2022/03/16 01:13:04;;;;;;;;;20.50;17.50;;;;;13.28;56.70;101525.38;5061530;28;46362;-60
2022/03/16 01:15:29;;;;;;;;;20.25;18.50;;;;;13.29;56.94;101520.97;5060485;28;45346;-60
2022/03/16 01:17:54;;;;;;;;;24.50;22.75;;;;;13.29;56.43;101518.31;5061709;28;45836;-60
2022/03/16 01:20:21;;;;;;;;;18.75;18.50;;;;;13.30;56.34;101520.06;5061621;28;45344;-61
2022/03/16 01:22:46;;;;;;;;;19.25;17.00;;;;;13.30;56.78;101520.06;5061347;28;46208;-60
2022/03/16 01:25:12;;;;;;;;;20.50;19.00;;;;;13.27;56.69;101499.88;5061546;28;45246;-60
2022/03/16 01:27:37;;;;;;;;;18.75;18.75;;;;;13.29;56.23;101508.63;5061231;28;45321;-60
2022/03/16 01:30:04;;;;;;;;;16.00;15.00;;;;;13.28;56.69;101504.28;5061717;28;45236;-60
2022/03/16 01:32:30;;;;;;;;;21.00;20.00;;;;;13.29;56.19;101499.84;5061284;28;46641;-60
2022/03/16 01:34:55;;;;;;;;;17.75;16.25;;;;;13.29;56.63;101499.84;5060122;28;45223;-60
2022/03/16 01:37:21;;;;;;;;;22.00;19.25;;;;;13.27;56.67;101489.31;5061237;28;45422;-60
2022/03/16 01:39:46;;;;;;;;;20.25;19.25;;;;;13.28;56.65;101488.44;5068307;28;45439;-60
2022/03/16 01:42:12;;;;;;;;;21.25;19.50;;;;;13.29;56.34;101498.06;5061162;28;45436;-60
2022/03/16 01:44:48;;;;;;;;;19.75;18.00;;;;;13.29;56.23;101494.56;5061498;28;45461;-60
2022/03/16 01:47:16;;;;;;;;;18.50;17.50;;;;;13.26;56.32;101489.34;5060020;28;45320;-60
2022/03/16 01:49:41;;;;;;;;;16.75;14.00;;;;;13.28;56.26;101504.28;5059794;28;45569;-60
2022/03/16 01:52:08;;;;;;;;;18.75;17.50;;;;;13.28;56.19;101501.63;5061002;28;45224;-60
2022/03/16 01:54:35;;;;;;;;;17.25;16.50;;;;;13.28;56.62;101498.09;5060864;28;45247;-60
2022/03/16 01:57:00;;;;;;;;;18.25;14.25;;;;;13.27;56.16;101489.31;5061302;28;45534;-60
2022/03/16 01:59:26;;;;;;;;;18.75;17.50;;;;;13.27;56.49;101506.91;5060891;28;45335;-60
2022/03/16 02:01:51;;;;;;;;;16.50;15.50;;;;;13.26;56.65;101502.53;5061019;28;45506;-59
2022/03/16 02:04:16;;;;;;;;;19.00;17.75;;;;;13.24;56.51;101502.53;5061099;28;45304;-60
2022/03/16 02:06:42;;;;;;;;;17.25;16.25;;;;;13.24;56.57;101494.63;5061333;28;45845;-60
2022/03/16 02:09:08;;;;;;;;;15.50;14.25;;;;;13.21;56.32;101494.69;5060403;28;45307;-60
2022/03/16 02:11:33;;;;;;;;;18.50;17.75;;;;;13.22;56.21;101492.91;5059304;28;45870;-60
2022/03/16 02:13:58;;;;;;;;;19.00;18.00;;;;;13.22;56.23;101493.78;5061008;28;45261;-60
2022/03/16 02:16:24;;;;;;;;;25.75;19.00;;;;;13.20;56.43;101498.19;5059564;28;45308;-60
2022/03/16 02:18:49;;;;;;;;;18.75;17.75;;;;;13.20;56.29;101498.19;5060938;28;45312;-60
2022/03/16 02:21:16;;;;;;;;;19.50;19.25;;;;;13.19;56.46;101493.81;5059179;28;47200;-60
2022/03/16 02:23:42;;;;;;;;;24.50;20.00;;;;;13.18;56.35;101502.63;5059429;28;45363;-60
2022/03/16 02:26:12;;;;;;;;;22.00;19.25;;;;;13.17;56.25;101495.63;5059107;28;45251;-60
2022/03/16 02:28:37;;;;;;;;;23.00;20.50;;;;;13.17;56.41;101490.34;5060532;28;45836;-60
2022/03/16 02:31:04;;;;;;;;;19.50;18.00;;;;;13.16;56.26;101493.88;5060524;28;45989;-60
2022/03/16 02:33:30;;;;;;;;;23.75;21.25;;;;;13.15;56.13;101489.47;5060705;28;45335;-60
2022/03/16 02:35:55;;;;;;;;;22.00;18.75;;;;;13.14;56.35;101493.00;5059319;28;45507;-60
2022/03/16 02:38:21;;;;;;;;;21.75;20.50;;;;;13.13;56.56;101488.63;5063383;28;45495;-60
2022/03/16 02:40:46;;;;;;;;;22.00;20.00;;;;;13.11;56.51;101485.13;5062507;28;48529;-60
2022/03/16 02:43:11;;;;;;;;;22.50;19.50;;;;;13.11;56.23;101480.72;5060556;28;45228;-60
2022/03/16 02:45:37;;;;;;;;;22.00;20.75;;;;;13.09;56.15;101481.63;5060641;28;45229;-60
2022/03/16 02:48:03;;;;;;;;;21.75;18.25;;;;;13.10;56.51;101480.75;5060451;28;45428;-60
2022/03/16 02:50:28;;;;;;;;;23.25;21.75;;;;;13.07;56.25;101476.38;5058954;28;47126;-61
2022/03/16 02:52:54;;;;;;;;;24.00;22.00;;;;;13.05;56.31;101474.66;5059991;28;45262;-60
2022/03/16 02:55:20;;;;;;;;;27.00;25.00;;;;;13.05;56.27;101478.16;5060270;28;45224;-60
2022/03/16 02:57:45;;;;;;;;;27.25;25.75;;;;;13.03;56.54;101471.16;5060482;28;45239;-60
2022/03/16 03:00:11;;;;;;;;;19.75;19.25;;;;;13.01;56.30;101468.53;5059945;28;45925;-60
2022/03/16 03:02:37;;;;;;;;;24.00;23.75;;;;;12.97;56.25;101473.00;5060340;28;45311;-60
2022/03/16 03:05:03;;;;;;;;;25.25;23.00;;;;;12.97;56.60;101467.72;5060341;28;45288;-60
2022/03/16 03:07:28;;;;;;;;;22.50;22.25;;;;;12.95;56.57;101468.63;5059812;28;45350;-60
2022/03/16 03:09:54;;;;;;;;;20.75;20.50;;;;;12.91;56.28;101470.41;5059481;28;46067;-60
2022/03/16 03:12:20;;;;;;;;;24.00;22.50;;;;;12.89;56.23;101460.78;5060110;28;45416;-64
2022/03/16 03:14:46;;;;;;;;;28.50;24.25;;;;;12.88;56.28;101472.22;5058714;28;45332;-64
2022/03/16 03:17:11;;;;;;;;;18.25;17.00;;;;;12.88;56.30;101462.56;5058763;28;45565;-60
2022/03/16 03:19:36;;;;;;;;;23.00;21.25;;;;;12.86;56.55;101474.88;5059689;28;45432;-60
2022/03/16 03:22:04;;;;;;;;;28.00;24.75;;;;;12.85;56.22;101475.78;5059952;28;45150;-60
2022/03/16 03:24:30;;;;;;;;;28.25;26.25;;;;;12.84;56.62;101474.03;5059740;28;45223;-60
2022/03/16 03:26:55;;;;;;;;;31.00;25.50;;;;;12.83;56.30;101470.53;5058412;28;45293;-64
2022/03/16 03:29:20;;;;;;;;;22.75;22.25;;;;;12.82;56.47;101470.53;5059556;28;45417;-61
2022/03/16 03:31:46;;;;;;;;;29.00;29.00;;;;;12.80;56.47;101467.94;5041858;28;45459;-60
2022/03/16 03:34:11;;;;;;;;;21.75;21.75;;;;;12.80;56.39;101469.69;5059877;28;45289;-59
2022/03/16 03:36:37;;;;;;;;;27.50;23.75;;;;;12.76;56.58;101475.88;5059834;28;45331;-60
2022/03/16 03:39:03;;;;;;;;;28.50;26.50;;;;;12.76;56.46;101479.38;5066889;28;45403;-60
2022/03/16 03:41:28;;;;;;;;;30.25;26.25;;;;;12.75;56.66;101479.41;5059649;28;45332;-60
2022/03/16 03:43:54;;;;;;;;;34.50;27.50;;;;;12.74;56.56;101475.91;5059623;28;45339;-60
2022/03/16 03:46:20;;;;;;;;;29.25;27.00;;;;;12.73;56.41;101476.81;5058351;28;45382;-60
2022/03/16 03:48:45;;;;;;;;;28.75;27.75;;;;;12.72;56.33;101474.19;5059224;28;45403;-61
2022/03/16 03:51:11;;;;;;;;;28.50;26.25;;;;;12.71;56.54;101480.34;5060599;28;45239;-60
2022/03/16 03:53:36;;;;;;;;;31.50;26.50;;;;;12.71;56.71;101483.84;5061682;28;45242;-60
2022/03/16 03:56:02;;;;;;;;;29.75;27.50;;;;;12.69;56.43;101482.97;5063011;28;45387;-60
2022/03/16 03:58:27;;;;;;;;;26.25;26.25;;;;;12.68;56.24;101475.97;5062819;28;45434;-60
2022/03/16 04:00:53;;;;;;;;;30.50;25.50;;;;;12.68;56.58;101476.84;5063104;28;45371;-60
2022/03/16 04:03:18;;;;;;;;;31.25;27.25;;;;;12.67;56.28;101477.72;5063094;28;45231;-60
2022/03/16 04:05:44;;;;;;;;;27.50;26.25;;;;;12.66;56.70;101475.13;5063147;28;45208;-60
2022/03/16 04:08:09;;;;;;;;;28.00;25.00;;;;;12.65;56.59;101463.72;5062165;28;45303;-60
2022/03/16 04:10:36;;;;;;;;;34.00;27.75;;;;;12.62;56.56;101458.44;5062842;28;45359;-60
2022/03/16 04:13:03;;;;;;;;;29.25;28.25;;;;;12.63;56.34;101462.84;5062954;28;45677;-60
2022/03/16 04:15:28;;;;;;;;;28.50;25.25;;;;;12.63;56.48;101461.97;5061587;28;45486;-60
2022/03/16 04:17:54;;;;;;;;;25.25;25.25;;;;;12.61;56.37;101459.34;5062525;28;45328;-60
2022/03/16 04:20:19;;;;;;;;;26.75;25.25;;;;;12.61;56.50;101453.19;5061231;28;45349;-60
2022/03/16 04:22:45;;;;;;;;;27.50;25.50;;;;;12.57;56.46;101441.81;5062584;28;45601;-60
2022/03/16 04:25:10;;;;;;;;;30.25;27.50;;;;;12.59;56.33;101452.34;5062415;28;45481;-60
2022/03/16 04:27:36;;;;;;;;;26.00;24.75;;;;;12.55;56.70;101437.44;5062378;28;45178;-60
2022/03/16 04:30:01;;;;;;;;;29.25;27.25;;;;;12.56;56.37;101439.19;5062595;28;45229;-60
2022/03/16 04:32:26;;;;;;;;;31.25;26.50;;;;;12.52;56.43;101438.34;5061256;28;45550;-60
2022/03/16 04:34:52;;;;;;;;;26.50;23.25;;;;;12.51;56.46;101442.78;5062466;28;45163;-60
2022/03/16 04:37:17;;;;;;;;;31.75;28.00;;;;;12.52;56.64;101456.81;5062092;28;46277;-60
2022/03/16 04:39:42;;;;;;;;;28.50;26.00;;;;;12.49;56.34;101438.38;5069783;28;45214;-60
2022/03/16 04:42:08;;;;;;;;;26.75;26.50;;;;;12.49;56.58;101449.81;5062524;28;45407;-60
2022/03/16 04:44:33;;;;;;;;;24.75;23.50;;;;;12.45;56.58;101429.66;5062316;28;45232;-60
2022/03/16 04:46:59;;;;;;;;;28.50;28.00;;;;;12.46;56.56;101433.16;5062119;28;45486;-60
2022/03/16 04:49:24;;;;;;;;;28.75;25.00;;;;;12.45;56.62;101439.31;5061907;28;45224;-60
2022/03/16 04:51:49;;;;;;;;;29.25;26.50;;;;;12.43;56.76;101433.19;5061077;28;45244;-60
2022/03/16 04:54:16;;;;;;;;;25.00;23.25;;;;;12.41;56.48;101438.47;5061787;28;45238;-60
2022/03/16 04:56:42;;;;;;;;;26.75;25.25;;;;;12.41;56.68;101445.50;5062019;28;45602;-60
2022/03/16 04:59:07;;;;;;;;;26.50;25.25;;;;;12.39;56.91;101449.91;5061873;28;45264;-64
2022/03/16 05:01:32;;;;;;;;;26.50;24.00;;;;;12.34;56.67;101442.94;5062285;28;45319;-61
2022/03/16 05:03:58;;;;;;;;;28.00;24.50;;;;;12.37;56.59;101456.97;5061164;28;45353;-60
2022/03/16 05:06:23;;;;;;;;;25.75;24.75;;;;;12.34;56.51;101455.25;5061851;28;46882;-59
2022/03/16 05:08:50;;;;;;;;;26.50;25.50;;;;;12.33;56.61;101442.97;5061275;28;46451;-60
2022/03/16 05:11:16;;;;;;;;;27.00;25.50;;;;;12.33;56.59;101445.59;5061926;28;45481;-60
2022/03/16 05:13:42;;;;;;;;;29.50;26.00;;;;;12.31;56.60;101440.34;5061698;28;45213;-60
2022/03/16 05:16:08;;;;;;;;;29.50;25.00;;;;;12.31;56.53;101436.81;5061596;28;46128;-60
2022/03/16 05:18:34;;;;;;;;;27.50;25.50;;;;;12.31;56.60;101439.47;5061663;28;45333;-60
2022/03/16 05:21:00;;;;;;;;;28.25;25.25;;;;;12.28;56.62;101436.88;5061752;28;45347;-60
2022/03/16 05:23:25;;;;;;;;;29.50;27.25;;;;;12.28;56.62;101423.69;5061522;28;45254;-60
2022/03/16 05:25:51;;;;;;;;;28.75;26.50;;;;;12.26;56.57;101422.81;5061249;28;46058;-60
2022/03/16 05:28:17;;;;;;;;;47.75;38.00;;;;;12.25;56.38;101437.78;5061369;28;45440;-60
2022/03/16 05:30:43;;;;;;;;;28.00;26.00;;;;;12.20;56.69;101429.03;5060441;28;45339;-59
2022/03/16 05:33:09;;;;;;;;;30.25;29.00;;;;;12.21;56.76;101436.03;5061433;28;45351;-60
2022/03/16 05:35:34;;;;;;;;;30.75;24.00;;;;;12.22;56.91;101450.09;5060073;28;45875;-60
2022/03/16 05:38:02;;;;;;;;;27.25;26.25;;;;;12.20;56.72;101450.13;5062634;28;45315;-60
2022/03/16 05:40:28;;;;;;;;;28.50;27.50;;;;;12.19;56.71;101453.63;5068412;27;45215;-60
2022/03/16 05:42:53;;;;;;;;;29.00;25.50;;;;;12.17;56.86;101453.63;5061343;28;45628;-60
2022/03/16 05:45:19;;;;;;;;;29.50;28.50;;;;;12.17;56.79;101452.78;5059905;28;45968;-60
2022/03/16 05:47:44;;;;;;;;;34.25;32.00;;;;;12.16;56.85;101456.28;5061317;28;45256;-60
2022/03/16 05:50:09;;;;;;;;;33.50;28.50;;;;;12.13;56.78;101465.09;5061322;28;45315;-60
2022/03/16 05:52:36;;;;;;;;;29.25;26.50;;;;;12.13;56.72;101458.97;5059809;28;45692;-60
2022/03/16 05:55:01;;;;;;;;;29.50;29.00;;;;;12.11;56.66;101458.09;5061163;28;46155;-60
2022/03/16 05:57:27;;;;;;;;;34.75;31.50;;;;;12.13;56.70;101462.47;5059723;28;45868;-60
2022/03/16 05:59:52;;;;;;;;;28.00;25.50;;;;;12.13;56.80;101464.22;5061255;28;45316;-60
2022/03/16 06:02:18;;;;;;;;;25.75;25.25;;;;;12.13;56.86;101461.59;5061117;28;45257;-60
2022/03/16 06:04:44;;;;;;;;;30.25;30.00;;;;;12.13;56.80;101466.88;5061073;28;45299;-60
2022/03/16 06:07:10;;;;;;;;;32.25;31.00;;;;;12.10;56.85;101457.22;5060555;28;45292;-60
2022/03/16 06:09:36;;;;;;;;;41.50;33.00;;;;;12.11;56.85;101463.38;5060749;28;45241;-62
2022/03/16 06:12:03;;;;;;;;;34.00;27.25;;;;;12.10;56.75;101466.88;5060909;28;45263;-60
2022/03/16 06:14:29;;;;;;;;;31.75;30.75;;;;;12.09;56.86;101466.03;5058487;28;46579;-60
2022/03/16 06:16:54;;;;;;;;;32.25;31.00;;;;;12.09;56.82;101470.41;5060830;28;45245;-60
2022/03/16 06:19:20;;;;;;;;;29.25;26.50;;;;;12.08;57.06;101458.13;5059491;28;45238;-60
2022/03/16 06:21:46;;;;;;;;;30.75;29.25;;;;;12.08;56.85;101460.78;5060695;28;45158;-60
2022/03/16 06:24:11;;;;;;;;;35.25;30.50;;;;;12.09;56.83;101462.50;5059053;28;46407;-60
2022/03/16 06:26:40;;;;;;;;;35.25;32.25;;;;;12.08;56.95;101459.00;5060522;28;45330;-60
2022/03/16 06:29:06;;;;;;;;;35.75;27.50;;;;;12.06;57.08;101462.53;5060704;28;45359;-60
2022/03/16 06:31:32;;;;;;;;;39.50;31.75;;;;;12.06;56.86;101462.53;5060428;28;45223;-60
2022/03/16 06:33:58;;;;;;;;;37.00;31.50;;;;;12.07;57.00;101475.69;5060437;28;45318;-59
2022/03/16 06:36:23;;;;;;;;;37.00;31.00;;;;;12.09;56.96;101475.66;5060513;28;45213;-60
2022/03/16 06:38:48;;;;;;;;;38.50;33.25;;;;;12.07;57.08;101467.78;5068692;28;45370;-60
2022/03/16 06:41:14;;;;;;;;;36.25;31.50;;;;;12.07;56.98;101475.69;5059379;28;45825;-60
2022/03/16 06:43:40;;;;;;;;;37.25;33.00;;;;;12.08;57.02;101477.44;5060292;28;46013;-60
2022/03/16 06:46:06;;;;;;;;;37.75;31.00;;;;;12.09;57.02;101480.94;5060335;28;45169;-60
2022/03/16 06:48:31;;;;;;;;;26.75;25.00;;;;;12.08;56.80;101485.34;5059179;28;45461;-60
2022/03/16 06:50:57;;;;;;;;;32.00;28.50;;;;;12.08;57.02;101487.13;5060284;28;45489;-60
2022/03/16 06:53:24;;;;;;;;;35.00;30.75;;;;;12.06;57.03;101486.25;5059952;28;46082;-61
2022/03/16 06:55:49;;;;;;;;;36.50;31.75;;;;;12.03;57.06;101487.16;5059886;28;45465;-59
2022/03/16 06:58:15;;;;;;;;;36.50;31.75;;;;;12.07;57.05;101493.25;5058889;28;45265;-59
2022/03/16 07:00:40;;;;;;;;;32.75;31.00;;;;;12.10;57.01;101503.75;5059986;28;45398;-59
2022/03/16 07:03:06;;;;;;;;;33.75;28.25;;;;;12.10;56.96;101503.75;5059957;28;46067;-59
2022/03/16 07:05:39;;;;;;;;;36.50;31.25;;;;;12.12;56.97;101505.50;5060014;28;45391;-60
2022/03/16 07:08:07;;;;;;;;;31.50;28.50;;;;;12.12;57.15;101502.84;5059722;28;45503;-60
2022/03/16 07:10:35;;;;;;;;;36.25;31.25;;;;;12.13;57.23;101495.84;5058577;28;45796;-61
2022/03/16 07:13:02;;;;;;;;;31.75;29.00;;;;;12.13;57.09;101495.84;5042021;28;48005;-60
2022/03/16 07:15:30;;;;;;;;;32.75;30.00;;;;;12.14;57.34;101494.97;5058657;28;45407;-61
2022/03/16 07:17:56;;;;;;;;;33.75;30.50;;;;;12.13;57.01;101490.59;5058541;28;45283;-60
2022/03/16 07:20:22;;;;;;;;;33.50;29.75;;;;;12.14;57.16;101495.81;5058464;28;45459;-61
2022/03/16 07:23:10;;;;;;;;;35.25;32.50;;;;;12.15;57.11;101497.59;5059547;28;46307;-61
2022/03/16 07:25:40;;;;;;;;;31.75;29.50;;;;;12.18;57.08;101497.53;5059848;28;45442;-61
2022/03/16 07:28:07;;;;;;;;;35.50;32.50;;;;;12.16;57.10;101494.06;5063543;28;45385;-61
2022/03/16 07:30:33;;;;;;;;;34.50;29.75;;;;;12.18;57.06;101494.03;5061894;28;45556;-60
2022/03/16 07:32:59;;;;;;;;;32.75;30.75;;;;;12.19;57.27;101494.03;5063209;28;46021;-64
2022/03/16 07:35:27;;;;;;;;;34.00;31.25;;;;;12.21;57.33;101493.16;5062131;28;45200;-60
2022/03/16 07:37:55;;;;;;;;;38.50;33.00;;;;;12.21;57.20;101496.63;5063619;28;45334;-60
2022/03/16 07:40:21;;;;;;;;;38.75;31.75;;;;;12.23;57.29;101499.28;5070829;28;45549;-61
2022/03/16 07:42:47;;;;;;;;;36.75;31.00;;;;;12.25;57.25;101502.75;5062867;28;46465;-60
2022/03/16 07:45:18;;;;;;;;;31.00;29.50;;;;;12.26;57.01;101505.38;5063021;28;45237;-61
2022/03/16 07:47:49;;;;;;;;;38.00;33.00;;;;;12.27;57.34;101507.13;5061784;28;45357;-61
2022/03/16 07:50:15;;;;;;;;;45.75;35.00;;;;;12.28;57.40;101500.13;5063055;28;45472;-61
2022/03/16 07:52:40;;;;;;;;;33.50;32.00;;;;;12.30;57.40;101500.94;5061559;28;46981;-60
2022/03/16 07:55:07;;;;;;;;;42.25;35.50;;;;;12.27;57.18;101493.94;5062599;28;45248;-60
2022/03/16 07:57:32;;;;;;;;;34.50;30.00;;;;;12.32;57.34;101496.56;5063189;28;45303;-60
2022/03/16 07:59:58;;;;;;;;;34.25;31.00;;;;;12.32;56.57;101494.78;5062915;28;45233;-60
2022/03/16 08:02:27;;;;;;;;;33.75;31.00;;;;;12.33;57.19;101499.16;5063207;28;46187;-60
2022/03/16 08:04:52;;;;;;;;;38.50;33.25;;;;;12.34;57.26;101493.00;5062820;28;45283;-60
2022/03/16 08:07:18;;;;;;;;;32.50;30.25;;;;;12.35;57.25;101494.75;5061528;28;45274;-59
2022/03/16 08:09:43;;;;;;;;;35.25;31.00;;;;;12.32;57.27;101486.00;5062539;28;45501;-60
2022/03/16 08:12:09;;;;;;;;;35.00;31.75;;;;;12.37;57.22;101496.53;5062790;28;46063;-60
2022/03/16 08:14:34;;;;;;;;;35.00;30.00;;;;;12.37;57.20;101488.63;5062813;28;45211;-60
2022/03/16 08:16:59;;;;;;;;;31.75;29.75;;;;;12.40;57.16;101491.22;5062976;28;45222;-60
2022/03/16 08:19:25;;;;;;;;;37.00;32.25;;;;;12.41;57.22;101483.28;5062691;28;45164;-60
2022/03/16 08:21:50;;;;;;;;;33.25;32.25;;;;;12.33;57.05;101470.19;5062525;28;46199;-59
2022/03/16 08:24:16;;;;;;;;;29.75;28.75;;;;;12.44;57.37;101479.72;5062618;28;45343;-60
2022/03/16 08:26:41;;;;;;;;;38.50;32.00;;;;;12.44;57.12;101477.09;5062722;28;45505;-60
2022/03/16 08:29:07;;;;;;;;;38.50;31.25;;;;;12.45;57.44;101473.56;5062478;28;45284;-60
2022/03/16 08:31:33;;;;;;;;;40.00;31.75;;;;;12.47;57.23;101477.94;5062657;28;45419;-60
2022/03/16 08:33:59;;;;;;;;;41.75;35.00;;;;;12.47;57.19;101470.03;5062350;28;45414;-60
2022/03/16 08:36:25;;;;;;;;;33.50;31.00;;;;;12.47;57.25;101471.81;5062669;28;45378;-60
2022/03/16 08:38:50;;;;;;;;;37.00;32.75;;;;;12.49;57.32;101470.91;5069281;28;45248;-60
2022/03/16 08:41:15;;;;;;;;;35.75;32.00;;;;;12.51;57.22;101473.50;5062256;28;46405;-59
2022/03/16 08:43:41;;;;;;;;;42.50;34.75;;;;;12.55;57.30;101469.94;5062435;28;45388;-59
2022/03/16 08:46:06;;;;;;;;;39.00;31.00;;;;;12.57;57.45;101476.09;5062473;28;45862;-60
2022/03/16 08:48:32;;;;;;;;;42.00;36.50;;;;;12.59;57.25;101490.13;5062325;28;45465;-60
2022/03/16 08:50:57;;;;;;;;;40.50;34.25;;;;;12.62;57.41;101502.41;5060817;28;47151;-59
2022/03/16 08:53:24;;;;;;;;;40.00;34.75;;;;;12.64;57.34;101493.59;5062089;28;45264;-60
2022/03/16 08:55:49;;;;;;;;;28.75;27.25;;;;;12.65;57.16;101491.81;5061991;28;45479;-60
2022/03/16 08:58:14;;;;;;;;;42.25;34.00;;;;;12.66;57.23;101499.72;5060705;28;45486;-60
2022/03/16 09:00:41;;;;;;;;;39.75;33.00;;;;;12.72;57.10;101505.84;5060515;28;46919;-60
2022/03/16 09:03:07;;;;;;;;;42.00;34.00;;;;;12.74;57.19;101497.00;5062042;28;45346;-61
2022/03/16 09:05:32;;;;;;;;;36.50;32.25;;;;;12.78;57.30;101503.09;5061888;28;45319;-61
2022/03/16 09:07:58;;;;;;;;;37.75;33.25;;;;;12.80;57.39;101509.25;5060413;28;45347;-61
2022/03/16 09:10:23;;;;;;;;;35.75;33.00;;;;;12.81;57.14;101503.94;5061214;28;45376;-61
2022/03/16 09:12:49;;;;;;;;;34.75;30.50;;;;;12.84;57.39;101514.47;5061908;28;45318;-61
2022/03/16 09:15:14;;;;;;;;;35.75;31.00;;;;;12.87;57.37;101512.66;5060672;28;45397;-60
2022/03/16 09:17:40;;;;;;;;;37.50;33.75;;;;;12.90;57.18;101515.28;5062017;28;45406;-61
2022/03/16 09:20:06;;;;;;;;;40.50;35.50;;;;;12.93;57.27;101525.78;5060162;28;47572;-61
2022/03/16 09:22:32;;;;;;;;;38.50;32.00;;;;;12.95;57.21;101519.59;5061623;28;45244;-60
2022/03/16 09:24:58;;;;;;;;;35.00;33.00;;;;;12.98;57.33;101513.41;5061463;28;45425;-60
2022/03/16 09:27:25;;;;;;;;;30.50;29.00;;;;;13.01;57.41;101503.72;5061609;28;45421;-61
2022/03/16 09:29:50;;;;;;;;;38.25;31.00;;;;;13.05;57.61;101501.06;5061337;28;46108;-61
2022/03/16 09:32:16;;;;;;;;;39.25;32.75;;;;;13.04;57.28;101500.16;5077046;27;45175;-61
2022/03/16 09:34:42;;;;;;;;;35.00;30.00;;;;;13.09;57.18;101502.75;5061526;28;45412;-61
2022/03/16 09:37:10;;;;;;;;;33.00;30.75;;;;;13.08;57.13;101499.25;5061263;28;45268;-61
2022/03/16 09:39:36;;;;;;;;;35.75;31.50;;;;;13.14;57.04;101506.19;5069970;28;45370;-60
2022/03/16 09:42:03;;;;;;;;;30.25;29.25;;;;;13.18;57.23;101515.81;5061389;28;45378;-60
2022/03/16 09:44:30;;;;;;;;;28.50;28.50;;;;;13.18;57.16;101515.81;5059953;28;45292;-61
2022/03/16 09:46:57;;;;;;;;;34.25;31.00;;;;;13.22;57.02;101512.25;5061289;28;45483;-61
2022/03/16 09:49:23;;;;;;;;;34.75;33.25;;;;;13.25;57.08;101514.84;5060864;28;46502;-59
2022/03/16 09:51:50;;;;;;;;;36.75;31.00;;;;;13.28;57.13;101501.63;5061103;28;45453;-61
2022/03/16 09:54:15;;;;;;;;;36.00;30.25;;;;;13.31;57.26;101506.84;5061130;28;45379;-61
2022/03/16 09:56:41;;;;;;;;;30.50;28.75;;;;;13.35;57.28;101499.78;5061315;28;45406;-61
2022/03/16 09:59:06;;;;;;;;;35.50;30.50;;;;;13.38;56.82;101496.25;5061387;28;45276;-61
2022/03/16 10:01:34;;;;;;;;;33.00;30.00;;;;;13.41;57.17;101490.91;5061148;28;45434;-60
2022/03/16 10:04:05;;;;;;;;;37.00;32.25;;;;;13.46;56.91;101494.38;5061103;28;45261;-60
2022/03/16 10:06:31;;;;;;;;;41.25;33.00;;;;;13.46;56.98;101489.09;5060842;28;45322;-60
2022/03/16 10:14:24;;;;;;;;;37.00;32.75;;;;;13.58;57.26;101488.03;5060978;28;45450;-60
2022/03/16 10:19:52;;;;;;;;;39.00;33.50;;;;;13.67;56.89;101482.59;5060835;28;45736;-60
2022/03/16 10:22:30;;;;;;;;;33.25;30.75;;;;;13.72;57.23;101486.09;5060451;28;45445;-60
2022/03/16 10:25:00;;;;;;;;;36.75;33.00;;;;;13.76;56.99;101493.06;5060595;28;45378;-60
2022/03/16 10:27:26;;;;;;;;;35.50;32.50;;;;;13.79;56.88;101484.22;5060688;28;45465;-60
2022/03/16 10:29:52;;;;;;;;;38.75;33.00;;;;;13.85;57.21;101488.50;5060288;28;45455;-60
2022/03/16 10:32:20;;;;;;;;;35.50;31.75;;;;;13.90;56.70;101481.38;5060388;28;45327;-60
2022/03/16 10:34:53;;;;;;;;;34.00;32.00;;;;;13.92;56.92;101475.19;5059137;28;45509;-60
2022/03/16 10:37:20;;;;;;;;;37.75;32.25;;;;;13.98;56.80;101472.41;5060210;28;45330;-60
2022/03/16 10:39:52;;;;;;;;;40.75;32.25;;;;;14.02;57.21;101475.03;5068837;28;46117;-60
2022/03/16 10:48:15;;;;;;;;;39.75;33.50;;;;;14.18;57.15;101473.88;5060266;28;45534;-59
2022/03/16 10:50:44;;;;;;;;;38.75;31.75;;;;;14.23;57.11;101474.66;5059997;28;46964;-59
2022/03/16 10:53:12;;;;;;;;;33.50;30.50;;;;;14.29;57.04;101471.91;5060014;28;45437;-59
2022/03/16 10:55:38;;;;;;;;;39.00;33.50;;;;;14.35;57.18;101467.41;5060023;28;45321;-59
2022/03/16 10:58:05;;;;;;;;;34.50;30.25;;;;;14.40;57.12;101466.44;5060266;28;45319;-59
2022/03/16 11:00:34;;;;;;;;;38.00;32.25;;;;;14.40;57.18;101447.03;5059241;28;45228;-59
2022/03/16 11:03:04;;;;;;;;;32.50;29.00;;;;;14.51;56.98;101454.78;5060179;28;45416;-59
2022/03/16 11:05:30;;;;;;;;;34.00;30.25;;;;;14.57;56.92;101444.06;5060026;28;45273;-60
2022/03/16 11:07:57;;;;;;;;;30.75;29.25;;;;;14.54;56.75;101431.78;5059924;28;45219;-59
2022/03/16 11:10:23;;;;;;;;;33.50;30.00;;;;;14.68;56.63;101436.81;5059320;28;46189;-60
2022/03/16 11:15:32;;;;;;;;;33.50;31.25;;;;;14.81;56.74;101433.94;5060208;28;45366;-59
2022/03/16 11:17:58;;;;;;;;;35.75;32.25;;;;;14.86;56.50;101424.97;5058493;28;45318;-58
2022/03/16 11:20:25;;;;;;;;;37.25;32.75;;;;;14.93;56.73;101431.00;5059959;28;45373;-59
2022/03/16 11:26:15;;;;;;;;;29.50;28.25;;;;;15.06;56.72;101437.78;5059755;28;45368;-59